createdAt,value
2018-07-20T00:04:49.615Z,26.14
2018-07-20T00:09:53.376Z,26.08
2018-07-20T00:14:57.114Z,25.95
2018-07-20T00:20:00.999Z,25.92
2018-07-20T00:25:12.522Z,25.84
2018-07-20T00:30:16.327Z,25.76
2018-07-20T00:35:20.078Z,25.72
2018-07-20T00:40:23.805Z,25.67
2018-07-20T00:45:27.470Z,25.65
2018-07-20T00:50:31.227Z,25.57
2018-07-20T00:55:35.070Z,25.55
2018-07-20T01:00:38.809Z,25.50
2018-07-20T01:05:42.532Z,25.47
2018-07-20T01:10:46.374Z,25.41
2018-07-20T01:15:50.090Z,25.41
2018-07-20T01:20:54.282Z,25.39
2018-07-20T01:25:58.015Z,25.35
2018-07-20T01:31:01.711Z,25.32
2018-07-20T01:36:05.481Z,25.28
2018-07-20T01:41:09.811Z,25.24
2018-07-20T01:46:13.487Z,25.24
2018-07-20T01:51:17.227Z,25.20
2018-07-20T01:56:20.973Z,25.18
2018-07-20T02:01:24.703Z,25.16
2018-07-20T02:06:28.403Z,25.15
2018-07-20T02:11:32.110Z,25.12
2018-07-20T02:16:35.920Z,25.07
2018-07-20T02:21:40.571Z,25.04
2018-07-20T02:26:44.326Z,25.02
2018-07-20T02:31:48.030Z,25.00
2018-07-20T02:36:51.695Z,24.96
2018-07-20T02:41:55.369Z,24.96
2018-07-20T02:46:59.055Z,24.92
2018-07-20T02:52:02.835Z,24.91
2018-07-20T02:57:06.642Z,24.90
2018-07-20T03:02:10.370Z,24.76
2018-07-20T03:07:14.148Z,24.61
2018-07-20T03:12:17.902Z,24.56
2018-07-20T03:17:21.571Z,24.48
2018-07-20T03:22:25.423Z,24.40
2018-07-20T03:27:29.187Z,24.32
2018-07-20T03:32:32.860Z,24.27
2018-07-20T03:37:36.643Z,24.27
2018-07-20T03:42:40.700Z,24.08
2018-07-20T03:47:44.394Z,24.03
2018-07-20T03:52:48.071Z,23.94
2018-07-20T03:57:51.786Z,23.96
2018-07-20T04:02:55.467Z,24.04
2018-07-20T04:07:59.178Z,24.00
2018-07-20T04:13:02.980Z,22.06
2018-07-20T04:18:06.918Z,21.29
2018-07-20T04:23:10.640Z,21.00
2018-07-20T04:28:14.323Z,21.03
2018-07-20T04:33:18.018Z,20.93
2018-07-20T04:38:21.731Z,20.82
2018-07-20T04:43:25.392Z,20.66
2018-07-20T04:48:29.589Z,20.65
2018-07-20T04:53:33.326Z,20.71
2018-07-20T04:58:37.009Z,20.71
2018-07-20T05:03:40.824Z,20.76
2018-07-20T05:08:44.486Z,20.98
2018-07-20T05:13:48.170Z,21.08
2018-07-20T05:18:51.872Z,21.21
2018-07-20T05:23:55.586Z,21.24
2018-07-20T05:28:59.238Z,21.31
2018-07-20T05:34:02.935Z,21.43
2018-07-20T05:39:08.766Z,21.46
2018-07-20T05:44:12.457Z,21.55
2018-07-20T05:49:16.143Z,21.57
2018-07-20T05:54:19.838Z,21.72
2018-07-20T05:59:23.590Z,21.74
2018-07-20T06:04:27.577Z,21.76
2018-07-20T06:09:31.253Z,21.81
2018-07-20T06:14:34.898Z,21.86
2018-07-20T06:19:38.641Z,21.95
2018-07-20T06:24:42.847Z,21.98
2018-07-20T06:29:46.530Z,22.11
2018-07-20T06:34:50.202Z,22.18
2018-07-20T06:39:53.894Z,22.29
2018-07-20T06:44:57.615Z,22.35
2018-07-20T06:50:03.658Z,22.43
2018-07-20T06:55:07.424Z,22.57
2018-07-20T07:00:11.439Z,22.58
2018-07-20T07:05:15.167Z,22.62
2018-07-20T07:10:18.905Z,22.80
2018-07-20T07:15:22.526Z,22.88
2018-07-20T07:20:26.264Z,22.94
2018-07-20T07:25:30.018Z,22.98
2018-07-20T07:30:35.031Z,22.99
2018-07-20T07:35:38.758Z,23.12
2018-07-20T07:40:42.505Z,23.24
2018-07-20T07:45:47.250Z,23.26
2018-07-20T07:50:52.268Z,23.31
2018-07-20T07:55:56.809Z,23.52
2018-07-20T08:01:01.352Z,23.54
2018-07-20T08:06:05.000Z,23.58
2018-07-20T08:11:08.789Z,23.63
2018-07-20T08:16:12.507Z,23.70
2018-07-20T08:21:17.157Z,23.85
2018-07-20T08:26:20.877Z,23.86
2018-07-20T08:31:24.827Z,23.83
2018-07-20T08:36:28.557Z,23.82
2018-07-20T08:41:33.221Z,23.89
2018-07-20T08:46:37.025Z,23.95
2018-07-20T08:51:40.626Z,23.97
2018-07-20T08:56:44.366Z,24.13
2018-07-20T09:01:49.121Z,24.17
2018-07-20T09:06:52.907Z,24.24
2018-07-20T09:11:56.675Z,24.31
2018-07-20T09:17:00.351Z,24.29
2018-07-20T09:22:04.444Z,24.29
2018-07-20T09:27:08.118Z,24.33
2018-07-20T09:32:11.817Z,24.36
2018-07-20T09:37:15.455Z,24.38
2018-07-20T09:42:19.197Z,24.40
2018-07-20T09:47:22.998Z,24.42
2018-07-20T09:52:26.793Z,24.45
2018-07-20T09:57:30.558Z,24.47
2018-07-20T10:02:34.331Z,24.51
2018-07-20T10:07:38.095Z,24.54
2018-07-20T10:12:41.960Z,24.54
2018-07-20T10:17:45.551Z,24.65
2018-07-20T10:22:49.189Z,24.62
2018-07-20T10:27:52.959Z,24.65
2018-07-20T10:32:56.670Z,24.70
2018-07-20T10:38:00.362Z,24.68
2018-07-20T10:43:04.069Z,24.72
2018-07-20T10:48:07.810Z,24.78
2018-07-20T10:53:11.475Z,24.88
2018-07-20T10:58:15.246Z,24.86
2018-07-20T11:03:19.065Z,24.84
2018-07-20T11:08:22.709Z,24.91
2018-07-20T11:13:26.748Z,24.92
2018-07-20T11:18:30.465Z,24.93
2018-07-20T11:23:34.200Z,24.93
2018-07-20T11:28:38.142Z,24.97
2018-07-20T11:33:41.874Z,25.00
2018-07-20T11:38:45.559Z,25.00
2018-07-20T11:43:49.279Z,25.02
2018-07-20T11:48:52.941Z,25.03
2018-07-20T11:53:56.687Z,25.11
2018-07-20T11:59:00.431Z,25.13
2018-07-20T12:04:04.051Z,25.08
2018-07-20T12:09:10.126Z,25.08
2018-07-20T12:14:13.817Z,25.19
2018-07-20T12:19:17.500Z,25.21
2018-07-20T12:24:21.329Z,25.26
2018-07-20T12:29:25.145Z,25.19
2018-07-20T12:34:28.857Z,25.17
2018-07-20T12:39:32.579Z,25.24
2018-07-20T12:44:36.334Z,25.30
2018-07-20T12:49:40.026Z,25.43
2018-07-20T12:54:43.767Z,25.55
2018-07-20T12:59:47.887Z,25.59
2018-07-20T13:04:51.814Z,25.58
2018-07-20T13:09:55.552Z,25.68
2018-07-20T13:14:59.248Z,25.73
2018-07-20T13:20:06.552Z,25.82
2018-07-20T13:25:11.646Z,25.90
2018-07-20T13:30:15.611Z,25.89
2018-07-20T13:35:19.351Z,25.88
2018-07-20T13:40:23.232Z,25.95
2018-07-20T13:45:27.562Z,25.97
2018-07-20T13:50:31.331Z,26.00
2018-07-20T13:55:35.218Z,26.03
2018-07-20T14:00:38.954Z,26.07
2018-07-20T14:05:42.871Z,26.11
2018-07-20T14:10:46.655Z,26.01
2018-07-20T14:15:50.418Z,26.10
2018-07-20T14:20:54.331Z,26.07
2018-07-20T14:25:58.346Z,26.19
2018-07-20T14:31:02.169Z,26.22
2018-07-20T14:36:06.058Z,26.21
2018-07-20T14:41:09.890Z,26.27
2018-07-20T14:46:14.239Z,26.33
2018-07-20T14:51:18.006Z,26.33
2018-07-20T14:56:21.727Z,26.36
2018-07-20T15:01:25.751Z,26.36
2018-07-20T15:06:29.483Z,26.41
2018-07-20T15:11:33.174Z,26.38
2018-07-20T15:16:36.919Z,26.42
2018-07-20T15:21:40.631Z,26.38
2018-07-20T15:26:44.322Z,26.48
2018-07-20T15:31:48.049Z,26.47
2018-07-20T15:36:51.907Z,26.50
2018-07-20T15:41:56.807Z,26.52
2018-07-20T15:47:00.899Z,26.49
2018-07-20T15:57:08.463Z,26.59
2018-07-20T16:02:13.593Z,26.59
2018-07-20T16:07:17.289Z,26.59
2018-07-20T16:12:21.248Z,26.64
2018-07-20T16:17:25.272Z,26.70
2018-07-20T16:22:29.238Z,26.68
2018-07-20T16:27:33.464Z,26.62
2018-07-20T16:32:37.515Z,26.69
2018-07-20T16:37:41.419Z,26.72
2018-07-20T16:42:46.278Z,26.77
2018-07-20T16:47:50.196Z,26.74
2018-07-20T16:52:54.037Z,26.85
2018-07-20T16:57:57.762Z,26.90
2018-07-20T17:03:02.477Z,26.90
2018-07-20T17:08:06.217Z,26.98
2018-07-20T17:13:10.031Z,26.98
2018-07-20T17:18:13.747Z,27.05
2018-07-20T17:23:17.497Z,27.02
2018-07-20T17:28:21.153Z,27.16
2018-07-20T17:33:24.781Z,26.97
2018-07-20T17:38:28.548Z,27.20
2018-07-20T17:43:32.471Z,27.12
2018-07-20T17:48:36.401Z,27.19
2018-07-20T17:53:40.486Z,27.22
2018-07-20T17:58:44.567Z,27.17
2018-07-20T18:03:48.541Z,27.23
2018-07-20T18:08:52.520Z,27.22
2018-07-20T18:13:56.321Z,27.26
2018-07-20T18:19:01.205Z,27.18
2018-07-20T18:24:06.049Z,27.22
2018-07-20T18:29:10.433Z,27.14
2018-07-20T18:34:15.389Z,27.13
2018-07-20T18:39:20.554Z,27.14
2018-07-20T18:44:25.430Z,27.11
2018-07-20T18:49:30.305Z,27.07
2018-07-20T18:54:35.149Z,27.05
2018-07-20T18:59:40.347Z,26.98
2018-07-20T19:04:44.921Z,27.06
2018-07-20T19:09:49.249Z,27.01
2018-07-20T19:14:54.230Z,26.92
2018-07-20T19:19:59.146Z,26.92
2018-07-20T19:25:06.684Z,26.83
2018-07-20T19:30:11.898Z,26.89
2018-07-20T19:35:16.617Z,26.74
2018-07-20T19:40:21.490Z,26.77
2018-07-20T19:45:25.659Z,26.72
2018-07-20T19:50:29.441Z,26.78
2018-07-20T19:55:33.265Z,26.78
2018-07-20T20:00:37.923Z,26.76
2018-07-20T20:05:41.742Z,26.74
2018-07-20T20:10:45.514Z,26.65
2018-07-20T20:15:49.805Z,26.58
2018-07-20T20:20:54.923Z,26.58
2018-07-20T20:25:58.924Z,26.54
2018-07-20T20:31:03.335Z,26.52
2018-07-20T20:36:07.363Z,26.52
2018-07-20T20:41:12.053Z,26.53
2018-07-20T20:46:16.348Z,26.53
2018-07-20T20:51:20.294Z,26.49
2018-07-20T20:56:24.246Z,26.53
2018-07-20T21:01:27.999Z,26.52
2018-07-20T21:06:31.752Z,26.53
2018-07-20T21:11:35.612Z,26.49
2018-07-20T21:16:39.439Z,26.48
2018-07-20T21:21:43.154Z,26.49
2018-07-20T21:26:46.997Z,26.74
2018-07-20T21:31:50.760Z,26.72
2018-07-20T21:36:55.293Z,26.72
2018-07-20T21:41:59.430Z,26.69
2018-07-20T21:47:03.531Z,26.74
2018-07-20T21:52:08.038Z,26.71
2018-07-20T21:57:11.817Z,26.75
2018-07-20T22:02:15.846Z,26.74
2018-07-20T22:07:19.602Z,26.76
2018-07-20T22:12:23.706Z,26.72
2018-07-20T22:17:27.570Z,26.73
2018-07-20T22:22:31.386Z,26.80
2018-07-20T22:27:35.349Z,26.77
2018-07-20T22:32:39.288Z,26.75
2018-07-20T22:37:43.239Z,26.83
2018-07-20T22:42:46.987Z,26.81
2018-07-20T22:47:50.687Z,26.86
2018-07-20T22:52:55.190Z,26.86
2018-07-20T22:57:58.947Z,26.84
2018-07-20T23:03:02.649Z,26.85
2018-07-20T23:08:06.407Z,26.88
2018-07-20T23:13:10.032Z,26.87
2018-07-20T23:18:13.927Z,26.72
2018-07-20T23:23:17.735Z,26.64
2018-07-20T23:28:21.467Z,26.63
2018-07-20T23:33:25.210Z,26.57
2018-07-20T23:38:29.331Z,26.57
2018-07-20T23:43:34.304Z,26.56
2018-07-20T23:48:38.749Z,26.52
2018-07-20T23:53:42.414Z,26.55
2018-07-20T23:58:46.471Z,26.49
